createdAt,value
2023-11-26T00:01:20.687Z,0.55
2023-11-26T00:03:52.847Z,0.53
2023-11-26T00:06:25.992Z,0.51
2023-11-26T00:08:58.072Z,0.50
2023-11-26T00:11:29.894Z,0.52
2023-11-26T00:14:02.094Z,0.52
2023-11-26T00:16:39.233Z,0.54
2023-11-26T00:19:11.407Z,0.53
2023-11-26T00:21:43.166Z,0.46
2023-11-26T00:24:15.013Z,0.44
2023-11-26T00:26:46.971Z,0.46
2023-11-26T00:29:19.674Z,0.48
2023-11-26T00:31:53.305Z,0.50
2023-11-26T00:34:25.207Z,0.50
2023-11-26T00:36:58.075Z,0.49
2023-11-26T00:39:31.496Z,0.48
2023-11-26T00:42:03.333Z,0.51
2023-11-26T00:44:35.394Z,0.52
2023-11-26T00:47:08.333Z,0.51
2023-11-26T00:49:40.686Z,0.51
2023-11-26T00:52:12.795Z,0.51
2023-11-26T00:54:44.608Z,0.49
2023-11-26T00:57:17.008Z,0.47
2023-11-26T00:59:48.889Z,0.44
2023-11-26T01:02:23.321Z,0.42
2023-11-26T01:04:55.375Z,0.39
2023-11-26T01:07:31.325Z,0.39
2023-11-26T01:10:04.121Z,0.38
2023-11-26T01:12:36.019Z,0.37
2023-11-26T01:15:09.845Z,0.37
2023-11-26T01:17:42.168Z,0.34
2023-11-26T01:20:14.862Z,0.35
2023-11-26T01:22:46.782Z,0.36
2023-11-26T01:25:18.890Z,0.36
2023-11-26T01:27:50.678Z,0.35
2023-11-26T01:30:23.214Z,0.31
2023-11-26T01:32:55.300Z,0.29
2023-11-26T01:35:27.155Z,0.27
2023-11-26T01:37:59.096Z,0.26
2023-11-26T01:40:31.338Z,0.27
2023-11-26T01:43:04.096Z,0.29
2023-11-26T01:45:35.946Z,0.30
2023-11-26T01:48:08.449Z,0.27
2023-11-26T01:50:40.295Z,0.26
2023-11-26T01:53:12.179Z,0.20
2023-11-26T01:55:44.263Z,0.17
2023-11-26T01:58:17.017Z,0.19
2023-11-26T02:00:48.874Z,0.18
2023-11-26T02:03:20.897Z,0.13
2023-11-26T02:05:53.761Z,0.12
2023-11-26T02:08:26.229Z,0.12
2023-11-26T02:10:58.138Z,0.11
2023-11-26T02:13:30.448Z,0.12
2023-11-26T02:16:02.392Z,0.14
2023-11-26T02:18:34.175Z,0.16
2023-11-26T02:21:09.058Z,0.17
2023-11-26T02:23:41.517Z,0.14
2023-11-26T02:26:13.445Z,0.11
2023-11-26T02:28:45.974Z,0.13
2023-11-26T02:31:18.179Z,0.12
2023-11-26T02:33:55.034Z,0.10
2023-11-26T02:36:28.600Z,0.09
2023-11-26T02:39:00.535Z,0.07
2023-11-26T02:41:32.538Z,0.08
2023-11-26T02:44:04.768Z,0.07
2023-11-26T02:46:38.125Z,0.06
2023-11-26T02:49:10.168Z,0.08
2023-11-26T02:51:42.063Z,0.08
2023-11-26T02:54:13.844Z,0.06
2023-11-26T02:56:46.756Z,0.06
2023-11-26T02:59:19.450Z,0.03
2023-11-26T03:01:54.633Z,0.00
2023-11-26T03:04:26.655Z,-0.05
2023-11-26T03:06:59.986Z,-0.05
2023-11-26T03:09:42.291Z,-0.06
2023-11-26T03:12:28.021Z,-0.10
2023-11-26T03:14:59.776Z,-0.11
2023-11-26T03:17:31.993Z,-0.14
2023-11-26T03:20:04.166Z,-0.17
2023-11-26T03:22:37.955Z,-0.19
2023-11-26T03:25:11.141Z,-0.23
2023-11-26T03:27:43.116Z,-0.25
2023-11-26T03:30:15.229Z,-0.29
2023-11-26T03:32:47.410Z,-0.30
2023-11-26T03:35:19.473Z,-0.30
2023-11-26T03:37:51.469Z,-0.31
2023-11-26T03:40:25.009Z,-0.27
2023-11-26T03:42:56.906Z,-0.30
2023-11-26T03:45:28.765Z,-0.31
2023-11-26T03:48:01.697Z,-0.37
2023-11-26T03:50:33.940Z,-0.44
2023-11-26T03:53:05.968Z,-0.43
2023-11-26T03:55:39.283Z,-0.40
2023-11-26T03:58:11.693Z,-0.39
2023-11-26T04:00:43.754Z,-0.37
2023-11-26T04:03:16.180Z,-0.34
2023-11-26T04:05:48.620Z,-0.36
2023-11-26T04:08:21.103Z,-0.43
2023-11-26T04:10:53.262Z,-0.44
2023-11-26T04:13:26.311Z,-0.39
2023-11-26T04:15:59.983Z,-0.40
2023-11-26T04:18:32.594Z,-0.42
2023-11-26T04:21:08.477Z,-0.40
2023-11-26T04:23:40.721Z,-0.45
2023-11-26T04:26:12.737Z,-0.48
2023-11-26T04:28:44.813Z,-0.49
2023-11-26T04:31:17.627Z,-0.48
2023-11-26T04:33:49.727Z,-0.45
2023-11-26T04:36:22.535Z,-0.45
2023-11-26T04:38:55.038Z,-0.43
2023-11-26T04:41:27.609Z,-0.41
2023-11-26T04:43:59.905Z,-0.43
2023-11-26T04:46:32.047Z,-0.46
2023-11-26T04:49:04.960Z,-0.48
2023-11-26T04:51:40.297Z,-0.46
2023-11-26T04:54:13.866Z,-0.44
2023-11-26T04:56:45.884Z,-0.43
2023-11-26T04:59:18.930Z,-0.42
2023-11-26T05:01:55.666Z,-0.40
2023-11-26T05:04:28.004Z,-0.42
2023-11-26T05:07:00.083Z,-0.41
2023-11-26T05:09:32.520Z,-0.44
2023-11-26T05:12:06.326Z,-0.42
2023-11-26T05:14:38.518Z,-0.41
2023-11-26T05:17:11.476Z,-0.41
2023-11-26T05:19:43.763Z,-0.41
2023-11-26T05:22:15.799Z,-0.42
2023-11-26T05:24:47.961Z,-0.45
2023-11-26T05:27:23.039Z,-0.45
2023-11-26T05:29:55.211Z,-0.45
2023-11-26T05:32:27.257Z,-0.43
2023-11-26T05:35:00.455Z,-0.41
2023-11-26T05:37:32.723Z,-0.42
2023-11-26T05:40:06.339Z,-0.40
2023-11-26T05:42:38.729Z,-0.39
2023-11-26T05:45:12.380Z,-0.37
2023-11-26T05:47:44.619Z,-0.35
2023-11-26T05:50:17.367Z,-0.36
2023-11-26T05:52:49.739Z,-0.43
2023-11-26T05:55:23.265Z,-0.48
2023-11-26T05:57:55.833Z,-0.52
2023-11-26T06:00:27.937Z,-0.53
2023-11-26T06:03:00.087Z,-0.55
2023-11-26T06:05:32.397Z,-0.58
2023-11-26T06:08:04.870Z,-0.62
2023-11-26T06:10:37.331Z,-0.60
2023-11-26T06:13:09.423Z,-0.62
2023-11-26T06:15:41.805Z,-0.67
2023-11-26T06:18:13.905Z,-0.70
2023-11-26T06:20:46.086Z,-0.73
2023-11-26T06:23:18.251Z,-0.79
2023-11-26T06:25:50.258Z,-0.80
2023-11-26T06:28:22.369Z,-0.85
2023-11-26T06:30:54.604Z,-0.90
2023-11-26T06:33:27.041Z,-0.96
2023-11-26T06:35:59.175Z,-0.95
2023-11-26T06:38:31.950Z,-0.97
2023-11-26T06:41:04.535Z,-0.95
2023-11-26T06:43:36.514Z,-0.94
2023-11-26T06:46:18.078Z,-0.97
2023-11-26T06:48:51.269Z,-0.97
2023-11-26T06:51:24.216Z,-0.97
2023-11-26T06:53:56.519Z,-1.01
2023-11-26T06:56:28.572Z,-1.01
2023-11-26T06:59:00.528Z,-1.07
2023-11-26T07:01:32.921Z,-1.07
2023-11-26T07:04:05.385Z,-1.11
2023-11-26T07:06:37.565Z,-1.17
2023-11-26T07:09:10.440Z,-1.17
2023-11-26T07:11:42.499Z,-1.20
2023-11-26T07:14:14.626Z,-1.17
2023-11-26T07:16:47.370Z,-1.17
2023-11-26T07:19:21.473Z,-1.20
2023-11-26T07:21:53.863Z,-1.18
2023-11-26T07:24:26.133Z,-1.13
2023-11-26T07:26:58.385Z,-1.08
2023-11-26T07:29:30.569Z,-1.05
2023-11-26T07:32:02.827Z,-0.99
2023-11-26T07:34:34.831Z,-0.78
2023-11-26T07:37:07.410Z,-0.66
2023-11-26T07:39:39.529Z,-0.60
2023-11-26T07:42:11.822Z,-0.54
2023-11-26T07:44:44.000Z,-0.25
2023-11-26T07:47:16.025Z,-0.06
2023-11-26T07:49:48.060Z,0.07
2023-11-26T07:52:20.166Z,0.04
2023-11-26T07:54:52.290Z,0.06
2023-11-26T07:57:24.411Z,0.11
2023-11-26T07:59:56.435Z,0.13
2023-11-26T08:02:30.687Z,0.28
2023-11-26T08:05:04.378Z,0.58
2023-11-26T08:07:37.887Z,1.14
2023-11-26T08:10:19.595Z,1.46
2023-11-26T08:12:51.888Z,1.84
2023-11-26T08:15:25.438Z,1.86
2023-11-26T08:17:58.322Z,1.85
2023-11-26T08:20:30.881Z,1.87
2023-11-26T08:23:04.013Z,1.62
2023-11-26T08:25:38.092Z,1.39
2023-11-26T08:28:10.572Z,1.24
2023-11-26T08:30:45.775Z,1.22
2023-11-26T08:33:22.132Z,1.42
2023-11-26T08:36:00.940Z,1.99
2023-11-26T08:38:35.642Z,2.64
2023-11-26T08:41:11.860Z,2.98
2023-11-26T08:43:46.397Z,3.50
2023-11-26T08:46:20.793Z,4.05
2023-11-26T08:48:54.458Z,4.65
2023-11-26T08:51:28.862Z,4.90
2023-11-26T08:54:03.864Z,5.18
2023-11-26T08:56:36.353Z,4.68
2023-11-26T08:59:08.539Z,4.74
2023-11-26T09:01:40.967Z,5.48
2023-11-26T09:04:13.480Z,5.84
2023-11-26T09:06:45.620Z,5.97
2023-11-26T09:09:17.789Z,5.87
2023-11-26T09:11:50.372Z,5.89
2023-11-26T09:14:22.416Z,6.18
2023-11-26T09:16:54.506Z,6.92
2023-11-26T09:19:26.838Z,7.19
2023-11-26T09:22:03.597Z,7.53
2023-11-26T09:24:36.467Z,8.19
2023-11-26T09:27:10.222Z,8.59
2023-11-26T09:29:42.241Z,8.78
2023-11-26T09:32:14.592Z,9.27
2023-11-26T09:34:46.742Z,9.82
2023-11-26T09:37:19.619Z,9.23
2023-11-26T09:39:51.614Z,8.24
2023-11-26T09:42:25.791Z,7.94
2023-11-26T09:44:58.103Z,7.44
2023-11-26T09:47:30.923Z,6.61
2023-11-26T09:50:04.010Z,6.26
2023-11-26T09:52:38.256Z,6.24
2023-11-26T09:55:11.787Z,6.13
2023-11-26T09:57:44.071Z,6.30
2023-11-26T10:00:18.535Z,6.73
2023-11-26T10:03:03.682Z,7.50
2023-11-26T10:05:37.116Z,7.66
2023-11-26T10:08:27.335Z,7.68
2023-11-26T10:11:00.138Z,7.12
2023-11-26T10:13:41.041Z,6.63
2023-11-26T10:16:14.070Z,6.71
2023-11-26T10:18:46.548Z,6.96
2023-11-26T10:21:18.977Z,7.13
2023-11-26T10:23:51.164Z,6.89
2023-11-26T10:26:27.458Z,6.43
2023-11-26T10:29:05.091Z,6.04
2023-11-26T10:31:37.769Z,5.64
2023-11-26T10:34:15.321Z,5.18
2023-11-26T10:36:47.537Z,5.07
2023-11-26T10:39:19.660Z,4.89
2023-11-26T10:41:52.628Z,4.91
2023-11-26T10:44:26.115Z,4.75
2023-11-26T10:47:02.484Z,4.39
2023-11-26T10:49:41.840Z,4.16
2023-11-26T10:52:25.178Z,3.77
2023-11-26T10:55:04.935Z,3.57
2023-11-26T10:57:42.214Z,3.68
2023-11-26T11:00:20.793Z,3.53
2023-11-26T11:02:53.418Z,3.56
2023-11-26T11:05:26.980Z,3.37
2023-11-26T11:08:00.779Z,3.29
2023-11-26T11:10:41.550Z,3.30
2023-11-26T11:13:14.586Z,3.25
2023-11-26T11:15:47.490Z,3.23
2023-11-26T11:18:43.334Z,3.11
2023-11-26T11:21:17.727Z,3.01
2023-11-26T11:23:51.830Z,2.90
2023-11-26T11:26:26.385Z,2.70
2023-11-26T11:29:01.524Z,2.66
2023-11-26T11:32:02.065Z,2.55
2023-11-26T11:34:34.781Z,2.73
2023-11-26T11:37:09.497Z,3.02
2023-11-26T11:39:51.388Z,3.47
2023-11-26T11:42:28.142Z,3.73
2023-11-26T11:45:30.376Z,3.75
2023-11-26T11:48:02.503Z,3.65
2023-11-26T11:50:34.590Z,3.49
2023-11-26T11:53:07.775Z,3.39
2023-11-26T11:55:59.317Z,3.21
2023-11-26T11:58:31.508Z,3.14
2023-11-26T12:01:05.148Z,2.97
2023-11-26T12:03:39.394Z,2.70
2023-11-26T12:06:17.354Z,2.56
2023-11-26T12:08:57.474Z,2.31
2023-11-26T12:11:30.117Z,1.89
2023-11-26T12:14:02.159Z,1.75
2023-11-26T12:16:34.292Z,1.69
2023-11-26T12:19:08.210Z,1.61
2023-11-26T12:21:40.398Z,1.51
2023-11-26T12:24:23.961Z,1.57
2023-11-26T12:26:56.250Z,1.70
2023-11-26T12:29:28.781Z,1.62
2023-11-26T12:32:06.462Z,1.49
2023-11-26T12:34:40.050Z,1.32
2023-11-26T12:37:13.180Z,1.30
2023-11-26T12:39:46.546Z,1.36
2023-11-26T12:42:19.528Z,1.39
2023-11-26T12:44:51.616Z,1.36
2023-11-26T12:47:24.938Z,1.30
2023-11-26T12:50:02.381Z,1.24
2023-11-26T12:52:37.614Z,1.07
2023-11-26T12:55:11.971Z,0.95
2023-11-26T12:57:44.985Z,0.92
2023-11-26T13:00:18.190Z,0.84
2023-11-26T13:03:07.323Z,0.70
2023-11-26T13:05:40.651Z,0.64
2023-11-26T13:08:23.950Z,0.67
2023-11-26T13:10:58.791Z,0.65
2023-11-26T13:13:33.488Z,0.66
2023-11-26T13:16:09.031Z,0.64
2023-11-26T13:18:41.902Z,0.64
2023-11-26T13:21:15.075Z,0.46
2023-11-26T13:23:47.355Z,0.42
2023-11-26T13:26:19.409Z,0.42
2023-11-26T13:28:51.795Z,0.45
2023-11-26T13:31:24.664Z,0.52
2023-11-26T13:33:56.754Z,0.49
2023-11-26T13:36:29.008Z,0.49
2023-11-26T13:39:01.601Z,0.55
2023-11-26T13:41:33.723Z,0.46
2023-11-26T13:44:06.332Z,0.46
2023-11-26T13:46:38.410Z,0.43
2023-11-26T13:49:13.088Z,0.41
2023-11-26T13:51:45.627Z,0.42
2023-11-26T13:54:17.844Z,0.45
2023-11-26T13:56:49.890Z,0.41
2023-11-26T13:59:22.818Z,0.40
2023-11-26T14:01:55.654Z,0.36
2023-11-26T14:04:27.950Z,0.30
2023-11-26T14:07:00.258Z,0.22
2023-11-26T14:09:32.540Z,0.15
2023-11-26T14:12:04.764Z,0.11
2023-11-26T14:14:36.816Z,0.05
2023-11-26T14:17:12.002Z,-0.03
2023-11-26T14:19:44.032Z,-0.06
2023-11-26T14:22:16.115Z,-0.09
2023-11-26T14:24:48.475Z,-0.09
2023-11-26T14:27:20.814Z,-0.06
2023-11-26T14:29:53.257Z,-0.02
2023-11-26T14:32:25.638Z,-0.01
2023-11-26T14:34:58.074Z,-0.01
2023-11-26T14:37:30.228Z,-0.00
2023-11-26T14:40:11.221Z,-0.03
2023-11-26T14:42:44.593Z,-0.02
2023-11-26T14:45:17.822Z,0.01
2023-11-26T14:47:50.115Z,-0.00
2023-11-26T14:50:22.771Z,-0.05
2023-11-26T14:52:54.849Z,-0.07
2023-11-26T14:55:27.347Z,-0.06
2023-11-26T14:57:59.586Z,-0.06
2023-11-26T15:00:31.962Z,-0.08
2023-11-26T15:03:04.626Z,-0.13
2023-11-26T15:05:37.089Z,-0.20
2023-11-26T15:08:09.466Z,-0.18
2023-11-26T15:10:41.611Z,-0.17
2023-11-26T15:13:13.661Z,-0.17
2023-11-26T15:15:45.893Z,-0.26
2023-11-26T15:18:19.469Z,-0.28
2023-11-26T15:20:52.048Z,-0.25
2023-11-26T15:23:24.715Z,-0.25
2023-11-26T15:25:57.037Z,-0.22
2023-11-26T15:28:29.833Z,-0.19
2023-11-26T15:31:01.959Z,-0.20
2023-11-26T15:33:34.272Z,-0.28
2023-11-26T15:36:08.776Z,-0.29
2023-11-26T15:38:40.879Z,-0.27
2023-11-26T15:41:20.179Z,-0.25
2023-11-26T15:43:52.372Z,-0.25
2023-11-26T15:46:27.016Z,-0.24
2023-11-26T15:48:59.564Z,-0.26
2023-11-26T15:51:32.115Z,-0.29
2023-11-26T15:54:05.418Z,-0.27
2023-11-26T15:56:37.652Z,-0.27
2023-11-26T15:59:10.812Z,-0.28
2023-11-26T16:01:43.239Z,-0.27
2023-11-26T16:04:15.358Z,-0.27
2023-11-26T16:06:47.461Z,-0.26
2023-11-26T16:09:20.107Z,-0.25
2023-11-26T16:11:52.178Z,-0.24
2023-11-26T16:14:24.148Z,-0.26
2023-11-26T16:17:05.071Z,-0.26
2023-11-26T16:19:51.121Z,-0.25
2023-11-26T16:22:24.176Z,-0.24
2023-11-26T16:24:56.675Z,-0.21
2023-11-26T16:27:28.837Z,-0.18
2023-11-26T16:30:03.515Z,-0.15
2023-11-26T16:32:36.445Z,-0.11
2023-11-26T16:35:10.243Z,-0.07
2023-11-26T16:37:43.648Z,-0.04
2023-11-26T16:40:17.044Z,-0.03
2023-11-26T16:42:49.080Z,-0.03
2023-11-26T16:45:21.188Z,-0.03
2023-11-26T16:47:54.864Z,-0.09
2023-11-26T16:50:27.017Z,-0.13
2023-11-26T16:52:59.416Z,-0.22
2023-11-26T16:55:32.502Z,-0.31
2023-11-26T16:58:04.604Z,-0.38
2023-11-26T17:00:37.141Z,-0.40
2023-11-26T17:03:10.820Z,-0.41
2023-11-26T17:05:43.606Z,-0.45
2023-11-26T17:08:15.871Z,-0.48
2023-11-26T17:10:48.539Z,-0.53
2023-11-26T17:13:20.645Z,-0.59
2023-11-26T17:15:52.976Z,-0.64
2023-11-26T17:18:25.497Z,-0.66
2023-11-26T17:20:57.720Z,-0.70
2023-11-26T17:23:29.756Z,-0.76
2023-11-26T17:26:02.167Z,-0.84
2023-11-26T17:28:34.984Z,-0.88
2023-11-26T17:31:07.539Z,-0.92
2023-11-26T17:33:39.825Z,-0.97
2023-11-26T17:36:13.713Z,-0.99
2023-11-26T17:38:46.318Z,-1.01
2023-11-26T17:41:19.107Z,-1.01
2023-11-26T17:43:53.420Z,-1.04
2023-11-26T17:46:27.193Z,-1.07
2023-11-26T17:48:59.392Z,-1.06
2023-11-26T17:51:31.874Z,-1.09
2023-11-26T17:54:04.942Z,-1.12
2023-11-26T17:56:37.339Z,-1.16
2023-11-26T17:59:09.340Z,-1.19
2023-11-26T18:01:41.486Z,-1.21
2023-11-26T18:04:13.669Z,-1.25
2023-11-26T18:06:46.303Z,-1.29
2023-11-26T18:09:19.001Z,-1.34
2023-11-26T18:11:52.337Z,-1.40
2023-11-26T18:14:24.407Z,-1.43
2023-11-26T18:16:56.633Z,-1.47
2023-11-26T18:19:28.819Z,-1.51
2023-11-26T18:22:01.198Z,-1.52
2023-11-26T18:24:33.764Z,-1.52
2023-11-26T18:27:06.633Z,-1.58
2023-11-26T18:29:40.478Z,-1.61
2023-11-26T18:32:13.318Z,-1.65
2023-11-26T18:34:47.354Z,-1.67
2023-11-26T18:37:22.233Z,-1.68
2023-11-26T18:39:54.698Z,-1.70
2023-11-26T18:42:27.341Z,-1.75
2023-11-26T18:44:59.408Z,-1.79
2023-11-26T18:47:31.491Z,-1.79
2023-11-26T18:50:03.953Z,-1.78
2023-11-26T18:52:36.041Z,-1.77
2023-11-26T18:55:09.448Z,-1.77
2023-11-26T18:57:41.522Z,-1.81
2023-11-26T19:00:16.108Z,-1.84
2023-11-26T19:02:48.138Z,-1.84
2023-11-26T19:05:20.308Z,-1.86
2023-11-26T19:07:52.486Z,-1.90
2023-11-26T19:10:24.600Z,-1.91
2023-11-26T19:12:56.639Z,-1.90
2023-11-26T19:15:28.893Z,-1.88
2023-11-26T19:18:01.094Z,-1.87
2023-11-26T19:20:33.182Z,-1.91
2023-11-26T19:23:05.312Z,-1.92
2023-11-26T19:25:37.664Z,-1.90
2023-11-26T19:28:09.763Z,-1.87
2023-11-26T19:30:41.974Z,-1.85
2023-11-26T19:33:14.303Z,-1.85
2023-11-26T19:35:47.636Z,-1.85
2023-11-26T19:38:19.646Z,-1.86
2023-11-26T19:40:51.717Z,-1.88
2023-11-26T19:43:23.759Z,-1.89
2023-11-26T19:45:55.886Z,-1.91
2023-11-26T19:48:27.978Z,-1.96
2023-11-26T19:51:00.085Z,-1.99
2023-11-26T19:53:34.147Z,-2.02
2023-11-26T19:56:07.860Z,-2.03
2023-11-26T19:58:40.850Z,-2.00
2023-11-26T20:01:15.038Z,-1.96
2023-11-26T20:03:47.559Z,-1.90
2023-11-26T20:06:19.798Z,-1.87
2023-11-26T20:08:55.341Z,-1.85
2023-11-26T20:11:27.965Z,-1.86
2023-11-26T20:14:00.069Z,-1.85
2023-11-26T20:16:32.520Z,-1.85
2023-11-26T20:19:05.405Z,-1.85
2023-11-26T20:21:38.520Z,-1.79
2023-11-26T20:24:17.550Z,-1.76
2023-11-26T20:26:49.643Z,-1.72
2023-11-26T20:29:28.505Z,-1.71
2023-11-26T20:32:00.632Z,-1.74
2023-11-26T20:34:32.659Z,-1.75
2023-11-26T20:37:05.481Z,-1.74
2023-11-26T20:39:37.614Z,-1.74
2023-11-26T20:42:10.036Z,-1.68
2023-11-26T20:44:47.536Z,-1.67
2023-11-26T20:47:20.064Z,-1.64
2023-11-26T20:49:52.274Z,-1.60
2023-11-26T20:52:24.360Z,-1.61
2023-11-26T20:54:56.410Z,-1.62
2023-11-26T20:57:28.605Z,-1.65
2023-11-26T21:00:01.120Z,-1.64
2023-11-26T21:02:33.440Z,-1.61
2023-11-26T21:05:08.050Z,-1.57
2023-11-26T21:07:41.033Z,-1.58
2023-11-26T21:10:13.822Z,-1.58
2023-11-26T21:12:45.993Z,-1.57
2023-11-26T21:15:21.393Z,-1.57
2023-11-26T21:17:53.802Z,-1.56
2023-11-26T21:20:25.811Z,-1.54
2023-11-26T21:22:58.242Z,-1.54
2023-11-26T21:25:30.221Z,-1.55
2023-11-26T21:28:02.338Z,-1.55
2023-11-26T21:30:34.524Z,-1.56
2023-11-26T21:33:06.960Z,-1.59
2023-11-26T21:35:39.778Z,-1.59
2023-11-26T21:38:11.971Z,-1.61
2023-11-26T21:40:53.165Z,-1.60
2023-11-26T21:43:29.575Z,-1.62
2023-11-26T21:46:02.368Z,-1.61
2023-11-26T21:48:34.598Z,-1.60
2023-11-26T21:51:07.527Z,-1.58
2023-11-26T21:53:39.838Z,-1.59
2023-11-26T21:56:12.913Z,-1.57
2023-11-26T21:58:44.949Z,-1.55
2023-11-26T22:01:18.862Z,-1.56
2023-11-26T22:03:52.052Z,-1.56
2023-11-26T22:06:24.613Z,-1.58
2023-11-26T22:08:57.157Z,-1.57
2023-11-26T22:11:29.378Z,-1.56
2023-11-26T22:14:01.883Z,-1.59
2023-11-26T22:16:34.153Z,-1.62
2023-11-26T22:19:07.259Z,-1.62
2023-11-26T22:21:40.061Z,-1.67
2023-11-26T22:24:12.191Z,-1.70
2023-11-26T22:26:44.710Z,-1.78
2023-11-26T22:29:16.757Z,-1.79
2023-11-26T22:31:49.266Z,-1.79
2023-11-26T22:34:21.463Z,-1.82
2023-11-26T22:36:54.237Z,-1.84
2023-11-26T22:39:26.720Z,-1.83
2023-11-26T22:41:58.866Z,-1.81
2023-11-26T22:44:31.060Z,-1.82
2023-11-26T22:47:03.420Z,-1.83
2023-11-26T22:49:36.094Z,-1.81
2023-11-26T22:52:09.942Z,-1.84
2023-11-26T22:54:42.061Z,-1.87
2023-11-26T22:57:14.209Z,-1.90
2023-11-26T22:59:46.236Z,-1.88
2023-11-26T23:02:18.632Z,-1.88
2023-11-26T23:04:50.841Z,-1.92
2023-11-26T23:07:22.857Z,-1.91
2023-11-26T23:09:54.898Z,-1.93
2023-11-26T23:12:26.890Z,-1.94
2023-11-26T23:15:00.255Z,-1.92
2023-11-26T23:17:32.433Z,-1.89
2023-11-26T23:20:07.129Z,-1.86
2023-11-26T23:22:39.287Z,-1.83
2023-11-26T23:25:12.638Z,-1.79
2023-11-26T23:27:44.957Z,-1.76
2023-11-26T23:30:18.489Z,-1.74
2023-11-26T23:32:50.602Z,-1.71
2023-11-26T23:35:22.630Z,-1.65
2023-11-26T23:37:54.834Z,-1.64
2023-11-26T23:40:27.504Z,-1.65
2023-11-26T23:42:59.599Z,-1.65
2023-11-26T23:45:31.775Z,-1.60
2023-11-26T23:48:03.833Z,-1.59
2023-11-26T23:50:35.939Z,-1.57
2023-11-26T23:53:08.314Z,-1.59
2023-11-26T23:55:40.699Z,-1.58
2023-11-26T23:58:12.915Z,-1.56
